Time;durP1;ratioP1;P1;durP2;ratioP2;P2;SDS_P1;SDS_P2;PMS_P1;PMS_P2;Temp;Humidity;BMP_temperature;BMP_pressure;BME280_temperature;BME280_humidity;BME280_pressure;Samples;Min_cycle;Max_cycle;Signal;HPM_P1;HPM_P2
2023/12/31 00:00:53;;;;;;;0.25;0.17;;;8.60;99.90;;;;;;5051683;28;20590;-86
2023/12/31 00:03:18;;;;;;;0.00;0.00;;;8.40;99.90;;;;;;5084986;28;20549;-87
2023/12/31 00:05:44;;;;;;;0.80;0.75;;;8.20;57.50;;;;;;5068500;28;20052;-86
2023/12/31 00:08:11;;;;;;;0.25;0.25;;;8.10;99.90;;;;;;5086642;28;20493;-87
2023/12/31 00:10:39;;;;;;;0.05;0.05;;;8.10;99.90;;;;;;5095036;28;20051;-87
2023/12/31 00:13:05;;;;;;;1.23;0.55;;;8.20;99.90;;;;;;5049151;28;20101;-86
2023/12/31 00:15:31;;;;;;;0.00;0.00;;;8.10;99.90;;;;;;5066393;28;20398;-87
2023/12/31 00:17:56;;;;;;;0.10;0.10;;;8.20;99.90;;;;;;5045375;28;20043;-86
2023/12/31 00:20:22;;;;;;;0.47;0.13;;;8.10;99.90;;;;;;5097900;28;20394;-86
2023/12/31 00:22:47;;;;;;;0.00;0.00;;;8.10;99.90;;;;;;5092985;28;20043;-86
2023/12/31 00:25:13;;;;;;;0.55;0.52;;;8.20;99.90;;;;;;5094507;28;20040;-86
2023/12/31 00:27:40;;;;;;;0.00;0.00;;;8.40;99.90;;;;;;5086751;28;20043;-86
2023/12/31 00:30:07;;;;;;;0.00;0.00;;;8.40;96.60;;;;;;5068432;28;20352;-86
2023/12/31 00:32:32;;;;;;;0.00;0.00;;;8.40;99.90;;;;;;5087743;28;20055;-86
2023/12/31 00:34:58;;;;;;;0.15;0.15;;;8.40;87.70;;;;;;5092902;28;20406;-87
2023/12/31 00:37:24;;;;;;;0.00;0.00;;;8.50;1.00;;;;;;5092879;28;20051;-86
2023/12/31 00:39:49;;;;;;;0.10;0.10;;;8.50;1.00;;;;;;5067215;28;20105;-87
2023/12/31 00:42:15;;;;;;;0.75;0.75;;;8.50;1.00;;;;;;5094271;28;20044;-87
2023/12/31 00:44:40;;;;;;;0.10;0.10;;;8.50;1.00;;;;;;5067803;28;20146;-86
2023/12/31 00:47:06;;;;;;;0.10;0.10;;;8.50;1.00;;;;;;5083268;28;20040;-86
2023/12/31 00:49:32;;;;;;;0.08;0.08;;;8.50;1.00;;;;;;5102323;28;20047;-87
2023/12/31 00:51:57;;;;;;;0.00;0.00;;;8.50;1.00;;;;;;5097401;28;20043;-87
2023/12/31 00:54:23;;;;;;;1.00;0.15;;;8.40;1.00;;;;;;5099845;28;20086;-86
2023/12/31 00:56:49;;;;;;;0.10;0.10;;;8.30;99.90;;;;;;5069493;28;20052;-86
2023/12/31 00:59:16;;;;;;;0.75;0.75;;;8.30;99.90;;;;;;5094283;28;20504;-87
2023/12/31 01:01:41;;;;;;;0.40;0.40;;;8.70;99.90;;;;;;5070500;28;20052;-86
2023/12/31 01:04:07;;;;;;;0.10;0.10;;;8.10;99.90;;;;;;5069935;28;20502;-86
2023/12/31 01:06:32;;;;;;;0.00;0.00;;;8.30;99.90;;;;;;5083849;28;20044;-86
2023/12/31 01:08:59;;;;;;;0.43;0.20;;;8.30;99.90;;;;;;5058096;28;20052;-86
2023/12/31 01:11:27;;;;;;;0.00;0.00;;;8.30;99.90;;;;;;5095972;28;20386;-86
2023/12/31 01:13:53;;;;;;;0.00;0.00;;;8.30;92.20;;;;;;5097629;28;20548;-86
2023/12/31 01:16:18;;;;;;;0.03;0.03;;;8.20;99.90;;;;;;5051318;28;20131;-86
2023/12/31 01:18:44;;;;;;;0.32;0.08;;;8.30;99.90;;;;;;5100476;28;20161;-87
2023/12/31 01:21:10;;;;;;;0.10;0.10;;;8.30;99.90;;;;;;5068593;28;20036;-87
2023/12/31 01:23:36;;;;;;;0.00;0.00;;;8.30;99.90;;;;;;5095597;28;20081;-87
2023/12/31 01:26:02;;;;;;;0.10;0.10;;;8.20;91.00;;;;;;5098015;28;20040;-87
2023/12/31 01:28:27;;;;;;;0.30;0.28;;;8.20;99.90;;;;;;5084228;28;20083;-87
2023/12/31 01:30:53;;;;;;;0.08;0.08;;;8.10;99.90;;;;;;5066237;28;20071;-86
2023/12/31 01:33:19;;;;;;;0.03;0.03;;;8.10;99.90;;;;;;5092021;28;20047;-86
2023/12/31 01:35:44;;;;;;;0.00;0.00;;;8.70;99.90;;;;;;5102382;28;20063;-86
2023/12/31 01:38:10;;;;;;;0.00;0.00;;;7.90;99.90;;;;;;5090136;28;20056;-86
2023/12/31 01:40:36;;;;;;;0.00;0.00;;;8.00;99.90;;;;;;5100639;28;20044;-86
2023/12/31 01:43:02;;;;;;;0.00;0.00;;;8.00;99.90;;;;;;5091823;28;20033;-87
2023/12/31 01:45:27;;;;;;;0.15;0.10;;;8.10;99.90;;;;;;5096588;28;20049;-86
2023/12/31 01:47:53;;;;;;;0.00;0.00;;;8.10;99.90;;;;;;5094083;28;20514;-87
2023/12/31 01:50:20;;;;;;;0.65;0.63;;;8.10;99.90;;;;;;5090809;28;20039;-86
2023/12/31 01:52:47;;;;;;;0.00;0.00;;;8.20;99.90;;;;;;5088982;28;20036;-86
2023/12/31 01:55:14;;;;;;;0.00;0.00;;;8.10;99.90;;;;;;5072927;28;20413;-86
2023/12/31 01:57:41;;;;;;;0.00;0.00;;;8.00;99.90;;;;;;5096951;28;20071;-86
2023/12/31 02:00:08;;;;;;;0.30;0.30;;;8.00;99.90;;;;;;5084832;28;20044;-86
2023/12/31 02:02:34;;;;;;;0.00;0.00;;;8.00;99.90;;;;;;5084701;28;20059;-86
2023/12/31 02:05:00;;;;;;;0.30;0.20;;;7.90;99.90;;;;;;5093250;28;20039;-86
2023/12/31 02:07:26;;;;;;;1.55;0.55;;;7.90;99.90;;;;;;5102287;28;20039;-86
2023/12/31 02:09:52;;;;;;;0.08;0.08;;;8.00;99.90;;;;;;5065090;28;20056;-86
2023/12/31 02:12:18;;;;;;;0.10;0.08;;;8.10;99.90;;;;;;5091067;28;20041;-86
2023/12/31 02:14:44;;;;;;;0.00;0.00;;;8.10;99.90;;;;;;5105248;28;20055;-86
2023/12/31 02:17:09;;;;;;;0.10;0.08;;;8.10;99.90;;;;;;5105280;28;20048;-86
2023/12/31 02:19:35;;;;;;;0.00;0.00;;;8.10;99.90;;;;;;5072711;28;20518;-86
2023/12/31 02:22:01;;;;;;;0.08;0.08;;;8.10;99.90;;;;;;5088816;28;20032;-86
2023/12/31 02:24:32;;;;;;;0.30;0.20;;;8.10;99.90;;;;;;5065813;28;20051;-86
2023/12/31 02:26:57;;;;;;;0.00;0.00;;;8.20;41.40;;;;;;5093091;28;20502;-87
2023/12/31 02:29:23;;;;;;;0.90;0.85;;;8.10;99.90;;;;;;5089676;28;20036;-86
2023/12/31 02:31:49;;;;;;;0.00;0.00;;;8.10;99.90;;;;;;5099647;28;20044;-87
2023/12/31 02:34:15;;;;;;;0.00;0.00;;;8.10;45.20;;;;;;5069254;28;20095;-86
2023/12/31 02:36:41;;;;;;;0.00;0.00;;;8.00;98.80;;;;;;5100961;28;20545;-86
2023/12/31 02:39:06;;;;;;;1.30;0.68;;;8.00;99.90;;;;;;5095091;28;20428;-86
2023/12/31 02:41:34;;;;;;;0.00;0.00;;;8.00;81.40;;;;;;5102281;28;20047;-86
2023/12/31 02:44:00;;;;;;;0.20;0.15;;;7.90;99.90;;;;;;5079788;28;20505;-86
2023/12/31 02:46:26;;;;;;;0.40;0.40;;;7.90;50.80;;;;;;5095305;28;20479;-86
2023/12/31 02:48:52;;;;;;;0.15;0.13;;;7.90;99.90;;;;;;5099281;28;20539;-87
2023/12/31 02:51:18;;;;;;;0.00;0.00;;;7.80;99.90;;;;;;5082419;28;20063;-87
2023/12/31 02:53:43;;;;;;;0.00;0.00;;;7.90;99.90;;;;;;5078392;28;20119;-86
2023/12/31 02:56:09;;;;;;;0.10;0.10;;;7.80;1.00;;;;;;5093844;28;20046;-86
2023/12/31 02:58:34;;;;;;;0.00;0.00;;;7.80;18.60;;;;;;5087391;28;20501;-86
2023/12/31 03:01:00;;;;;;;0.00;0.00;;;7.80;62.00;;;;;;5092177;28;20052;-86
2023/12/31 03:03:25;;;;;;;0.00;0.00;;;7.70;99.90;;;;;;5090719;28;20123;-86
2023/12/31 03:05:51;;;;;;;0.05;0.05;;;7.70;99.90;;;;;;5093764;28;20050;-87
2023/12/31 03:08:17;;;;;;;0.10;0.10;;;7.80;99.90;;;;;;5066501;28;20220;-87
2023/12/31 03:10:42;;;;;;;1.80;0.52;;;7.90;1.00;;;;;;5096199;28;20161;-87
2023/12/31 03:13:08;;;;;;;0.20;0.20;;;7.80;1.00;;;;;;5086079;28;20497;-87
2023/12/31 03:15:33;;;;;;;0.00;0.00;;;7.90;1.00;;;;;;5093246;28;20393;-86
2023/12/31 03:17:59;;;;;;;0.00;0.00;;;7.70;69.50;;;;;;5095703;28;20132;-86
2023/12/31 03:20:25;;;;;;;0.00;0.00;;;7.80;99.90;;;;;;5063475;28;20075;-87
2023/12/31 03:22:50;;;;;;;0.90;0.40;;;7.70;99.90;;;;;;5097325;28;20485;-87
2023/12/31 03:25:16;;;;;;;0.52;0.50;;;7.70;99.90;;;;;;5065616;28;20064;-86
2023/12/31 03:27:41;;;;;;;1.20;0.40;;;7.70;99.90;;;;;;5064088;28;20060;-86
2023/12/31 03:30:08;;;;;;;0.00;0.00;;;7.60;99.90;;;;;;5047076;28;20048;-87
2023/12/31 03:32:34;;;;;;;0.00;0.00;;;7.50;99.90;;;;;;5046754;28;20075;-87
2023/12/31 03:34:59;;;;;;;0.10;0.10;;;7.60;99.90;;;;;;5063479;28;20127;-87
2023/12/31 03:37:25;;;;;;;0.25;0.25;;;7.50;1.00;;;;;;5081647;28;20424;-87
2023/12/31 03:39:51;;;;;;;0.17;0.10;;;7.50;1.00;;;;;;5090378;28;20040;-87
2023/12/31 03:42:18;;;;;;;0.00;0.00;;;7.30;87.40;;;;;;5076534;28;20040;-86
2023/12/31 03:44:44;;;;;;;0.00;0.00;;;7.20;99.90;;;;;;5076875;28;20082;-87
2023/12/31 03:47:09;;;;;;;0.00;0.00;;;7.20;99.90;;;;;;5081294;28;20076;-86
2023/12/31 03:49:35;;;;;;;0.00;0.00;;;7.10;99.90;;;;;;5089788;28;20044;-87
2023/12/31 03:52:01;;;;;;;0.00;0.00;;;7.20;99.90;;;;;;5080219;28;20122;-86
2023/12/31 03:54:26;;;;;;;0.22;0.13;;;7.20;99.90;;;;;;5095496;28;20044;-87
2023/12/31 03:56:52;;;;;;;0.35;0.25;;;7.20;99.90;;;;;;5081541;28;20456;-87
2023/12/31 03:59:17;;;;;;;0.00;0.00;;;7.20;99.90;;;;;;5081848;28;20127;-86
2023/12/31 04:01:45;;;;;;;0.00;0.00;;;7.10;99.90;;;;;;5084245;28;20417;-86
2023/12/31 04:04:13;;;;;;;0.03;0.03;;;7.20;99.90;;;;;;5095010;28;20079;-86
2023/12/31 04:06:38;;;;;;;0.00;0.00;;;7.20;99.90;;;;;;5076029;28;20106;-87
2023/12/31 04:09:04;;;;;;;0.90;0.35;;;7.10;99.90;;;;;;5068410;28;20052;-87
2023/12/31 04:11:29;;;;;;;2.75;1.35;;;7.10;1.00;;;;;;5076999;28;20043;-87
2023/12/31 04:13:55;;;;;;;0.00;0.00;;;7.10;1.00;;;;;;5091882;28;20437;-87
2023/12/31 04:16:20;;;;;;;0.45;0.40;;;7.10;1.00;;;;;;5091703;28;20493;-86
2023/12/31 04:18:46;;;;;;;0.00;0.00;;;7.00;1.00;;;;;;5081277;28;20040;-86
2023/12/31 04:21:14;;;;;;;0.25;0.17;;;7.10;1.00;;;;;;5092098;28;20090;-86
2023/12/31 04:23:39;;;;;;;0.00;0.00;;;7.10;1.00;;;;;;5088127;28;20070;-87
2023/12/31 04:26:06;;;;;;;0.00;0.00;;;7.10;1.00;;;;;;5085180;28;20470;-86
2023/12/31 04:28:32;;;;;;;0.00;0.00;;;7.10;1.00;;;;;;5090380;28;20070;-87
2023/12/31 04:30:58;;;;;;;0.00;0.00;;;7.20;1.00;;;;;;5097525;28;20485;-87
2023/12/31 04:33:23;;;;;;;0.65;0.52;;;7.10;1.00;;;;;;5071773;28;20041;-87
2023/12/31 04:35:49;;;;;;;0.17;0.17;;;7.10;1.00;;;;;;5096686;28;20039;-86
2023/12/31 04:38:15;;;;;;;0.13;0.10;;;7.30;99.90;;;;;;5069544;28;20057;-87
2023/12/31 04:40:40;;;;;;;0.00;0.00;;;7.30;99.90;;;;;;5101913;28;20053;-86
2023/12/31 04:43:06;;;;;;;0.30;0.30;;;7.20;99.90;;;;;;5085526;28;20042;-86
2023/12/31 04:45:31;;;;;;;0.00;0.00;;;7.30;99.90;;;;;;5096836;28;20131;-87
2023/12/31 04:47:57;;;;;;;0.00;0.00;;;7.30;99.90;;;;;;5105134;28;20050;-87
2023/12/31 04:50:22;;;;;;;0.00;0.00;;;7.20;99.90;;;;;;5096295;28;20032;-87
2023/12/31 04:52:48;;;;;;;0.10;0.05;;;7.20;99.90;;;;;;5087979;28;20130;-87
2023/12/31 04:55:14;;;;;;;0.00;0.00;;;7.20;99.90;;;;;;5089814;28;20409;-87
2023/12/31 04:57:40;;;;;;;0.00;0.00;;;7.30;99.90;;;;;;5092932;28;20048;-86
2023/12/31 05:00:06;;;;;;;0.38;0.30;;;7.30;99.90;;;;;;5093789;28;20069;-87
2023/12/31 05:02:32;;;;;;;0.17;0.17;;;7.40;99.90;;;;;;5073848;28;20056;-87
2023/12/31 05:04:58;;;;;;;0.00;0.00;;;7.50;99.90;;;;;;5078871;28;20108;-87
2023/12/31 05:07:24;;;;;;;0.03;0.03;;;7.40;99.90;;;;;;5095707;28;20489;-86
2023/12/31 05:09:49;;;;;;;0.00;0.00;;;7.30;99.90;;;;;;5096004;28;20497;-86
2023/12/31 05:12:15;;;;;;;0.00;0.00;;;7.30;99.90;;;;;;5086096;28;20048;-86
2023/12/31 05:14:40;;;;;;;0.00;0.00;;;7.30;99.90;;;;;;5079311;28;20040;-87
2023/12/31 05:17:06;;;;;;;0.60;0.52;;;7.30;99.90;;;;;;5084444;28;20072;-87
2023/12/31 05:19:32;;;;;;;0.10;0.10;;;7.30;99.90;;;;;;5089590;28;20103;-87
2023/12/31 05:21:57;;;;;;;0.00;0.00;;;7.30;99.90;;;;;;5068394;28;20083;-87
2023/12/31 05:24:23;;;;;;;0.00;0.00;;;7.30;99.90;;;;;;5095637;28;20472;-86
2023/12/31 05:26:49;;;;;;;0.00;0.00;;;7.30;99.90;;;;;;5088802;28;20052;-87
2023/12/31 05:29:15;;;;;;;0.60;0.45;;;7.30;99.90;;;;;;5083785;28;20071;-87
2023/12/31 05:31:40;;;;;;;0.10;0.10;;;7.90;99.90;;;;;;5095532;28;20039;-87
2023/12/31 05:34:06;;;;;;;0.00;0.00;;;7.30;99.90;;;;;;5084040;28;20431;-87
2023/12/31 05:36:31;;;;;;;0.52;0.52;;;7.30;99.90;;;;;;5092145;28;20039;-87
2023/12/31 05:38:57;;;;;;;0.35;0.35;;;7.30;99.90;;;;;;5084108;28;20081;-87
2023/12/31 05:41:23;;;;;;;0.00;0.00;;;7.40;99.90;;;;;;5093479;28;20048;-86
2023/12/31 05:43:48;;;;;;;0.00;0.00;;;7.40;99.90;;;;;;5074395;28;20481;-86
2023/12/31 05:46:14;;;;;;;0.08;0.08;;;7.40;99.90;;;;;;5089393;28;20044;-87
2023/12/31 05:48:39;;;;;;;0.00;0.00;;;7.40;99.90;;;;;;5087620;28;20482;-87
2023/12/31 05:51:05;;;;;;;0.00;0.00;;;7.40;76.20;;;;;;5103954;28;20046;-87
2023/12/31 05:53:31;;;;;;;0.20;0.20;;;7.40;95.30;;;;;;5093916;28;20046;-87
2023/12/31 05:55:57;;;;;;;0.08;0.08;;;7.40;1.00;;;;;;5065150;28;20413;-86
2023/12/31 05:58:22;;;;;;;1.83;1.08;;;7.50;1.00;;;;;;5099166;28;20420;-87
2023/12/31 06:00:49;;;;;;;0.20;0.20;;;7.50;1.00;;;;;;5083531;28;20063;-87
2023/12/31 06:03:15;;;;;;;0.00;0.00;;;7.50;99.90;;;;;;5080648;28;20050;-87
2023/12/31 06:05:40;;;;;;;0.00;0.00;;;7.50;99.90;;;;;;5085660;28;20509;-87
2023/12/31 06:08:06;;;;;;;0.00;0.00;;;7.50;99.90;;;;;;5091671;28;20044;-87
2023/12/31 06:10:32;;;;;;;0.10;0.10;;;7.50;99.90;;;;;;5090027;28;20046;-87
2023/12/31 06:12:57;;;;;;;0.52;0.32;;;7.60;99.90;;;;;;5101623;28;20044;-87
2023/12/31 06:15:23;;;;;;;0.00;0.00;;;7.60;99.90;;;;;;5098227;28;20534;-86
2023/12/31 06:17:48;;;;;;;0.28;0.28;;;7.60;99.90;;;;;;5091355;28;20044;-87
2023/12/31 06:20:14;;;;;;;0.10;0.10;;;7.60;99.90;;;;;;5091146;28;20051;-87
2023/12/31 06:22:40;;;;;;;0.80;0.25;;;7.60;99.90;;;;;;5097955;28;20150;-87
2023/12/31 06:25:06;;;;;;;1.85;1.17;;;7.60;99.90;;;;;;5093085;28;20050;-87
2023/12/31 06:27:32;;;;;;;1.25;0.20;;;7.60;99.50;;;;;;5083206;28;20055;-87
2023/12/31 06:29:58;;;;;;;0.20;0.20;;;7.60;99.90;;;;;;5082985;28;20079;-87
2023/12/31 06:32:24;;;;;;;0.00;0.00;;;7.60;99.90;;;;;;5085627;28;20501;-87
2023/12/31 06:34:50;;;;;;;0.40;0.40;;;7.70;99.90;;;;;;5064215;28;20664;-87
2023/12/31 06:37:16;;;;;;;0.47;0.47;;;7.60;1.00;;;;;;5082572;28;20150;-87
2023/12/31 06:39:43;;;;;;;0.08;0.08;;;7.70;1.00;;;;;;5090734;28;20481;-87
2023/12/31 06:42:08;;;;;;;0.00;0.00;;;7.60;1.00;;;;;;5094713;28;20076;-87
2023/12/31 06:44:34;;;;;;;0.00;0.00;;;7.60;3.40;;;;;;5101676;28;20039;-86
2023/12/31 06:46:59;;;;;;;0.00;0.00;;;7.60;32.90;;;;;;5096397;28;20044;-87
2023/12/31 06:49:25;;;;;;;0.85;0.47;;;7.70;99.90;;;;;;5100283;28;20572;-86
2023/12/31 06:51:50;;;;;;;0.22;0.13;;;7.70;99.90;;;;;;5077416;28;20044;-87
2023/12/31 06:54:16;;;;;;;0.17;0.17;;;7.70;99.90;;;;;;5069458;28;20040;-87
2023/12/31 06:56:42;;;;;;;3.15;0.35;;;7.90;99.90;;;;;;5099157;28;20063;-86
2023/12/31 06:59:07;;;;;;;3.83;1.20;;;7.90;99.90;;;;;;5082407;28;20178;-87
2023/12/31 07:01:33;;;;;;;0.50;0.47;;;7.90;1.00;;;;;;5050449;28;20057;-87
2023/12/31 07:04:00;;;;;;;1.02;0.30;;;7.90;1.00;;;;;;5086282;28;20134;-87
2023/12/31 07:06:26;;;;;;;0.00;0.00;;;8.00;1.00;;;;;;5086895;28;20386;-86
2023/12/31 07:08:52;;;;;;;0.00;0.00;;;8.00;99.90;;;;;;5092169;28;20047;-87
2023/12/31 07:11:17;;;;;;;1.48;0.30;;;8.10;99.90;;;;;;5097059;28;20057;-87
2023/12/31 07:13:43;;;;;;;0.00;0.00;;;8.90;99.90;;;;;;5090295;28;20044;-86
2023/12/31 07:16:09;;;;;;;0.47;0.30;;;8.00;99.90;;;;;;5054251;28;20068;-87
2023/12/31 07:18:36;;;;;;;0.25;0.25;;;8.00;99.90;;;;;;5063855;28;20105;-87
2023/12/31 07:21:02;;;;;;;0.10;0.00;;;8.80;99.90;;;;;;5082067;28;20059;-87
2023/12/31 07:23:28;;;;;;;0.00;0.00;;;8.10;99.90;;;;;;5087642;28;20081;-86
2023/12/31 07:25:53;;;;;;;0.00;0.00;;;8.10;99.90;;;;;;5090904;28;20044;-87
2023/12/31 07:28:19;;;;;;;0.00;0.00;;;8.10;99.90;;;;;;5093458;28;20043;-87
2023/12/31 07:30:46;;;;;;;0.00;0.00;;;8.20;96.90;;;;;;5102493;28;20528;-86
2023/12/31 07:33:12;;;;;;;0.10;0.10;;;8.30;1.00;;;;;;5092704;28;20056;-87
2023/12/31 07:35:38;;;;;;;0.00;0.00;;;8.30;1.00;;;;;;5088714;28;20630;-86
2023/12/31 07:38:05;;;;;;;0.10;0.10;;;8.40;1.00;;;;;;5064062;28;20048;-86
2023/12/31 07:40:34;;;;;;;0.10;0.10;;;8.40;1.00;;;;;;5063693;28;20052;-86
2023/12/31 07:43:00;;;;;;;0.40;0.38;;;8.50;1.00;;;;;;5063173;28;20044;-87
2023/12/31 07:45:28;;;;;;;1.17;0.70;;;8.60;99.90;;;;;;5091251;28;20073;-87
2023/12/31 07:47:53;;;;;;;0.20;0.20;;;8.50;99.90;;;;;;5069829;28;20135;-87
2023/12/31 07:50:20;;;;;;;0.30;0.30;;;8.50;99.90;;;;;;5081616;28;20152;-86
2023/12/31 07:52:46;;;;;;;0.55;0.40;;;8.60;99.90;;;;;;5074643;28;20517;-86
2023/12/31 07:55:12;;;;;;;0.05;0.05;;;8.60;99.90;;;;;;5082660;28;20079;-86
2023/12/31 07:57:38;;;;;;;0.08;0.08;;;8.60;1.00;;;;;;5091638;28;20079;-86
2023/12/31 08:00:05;;;;;;;0.45;0.30;;;8.80;99.90;;;;;;5067149;28;20080;-86
2023/12/31 08:02:31;;;;;;;12.20;0.47;;;8.80;99.90;;;;;;5065838;28;20585;-86
2023/12/31 08:04:56;;;;;;;4.75;0.25;;;8.80;99.90;;;;;;5093759;28;20044;-86
2023/12/31 08:07:22;;;;;;;0.10;0.10;;;8.70;99.90;;;;;;5066655;28;20619;-86
2023/12/31 08:09:47;;;;;;;0.00;0.00;;;8.80;99.90;;;;;;5094542;28;20047;-86
2023/12/31 08:12:13;;;;;;;0.00;0.00;;;8.70;99.90;;;;;;5055366;28;20052;-86
2023/12/31 08:14:39;;;;;;;0.15;0.10;;;8.80;99.90;;;;;;5079340;28;20391;-86
2023/12/31 08:17:04;;;;;;;1.23;0.60;;;8.90;99.90;;;;;;5084917;28;20443;-86
2023/12/31 08:19:30;;;;;;;0.73;0.68;;;8.90;99.90;;;;;;5074500;28;20050;-86
2023/12/31 08:21:57;;;;;;;0.00;0.00;;;8.90;99.90;;;;;;5079654;28;20036;-85
2023/12/31 08:24:22;;;;;;;0.38;0.08;;;8.90;99.90;;;;;;5083414;28;20054;-86
2023/12/31 08:26:48;;;;;;;0.13;0.10;;;8.90;99.90;;;;;;5083736;28;20048;-86
2023/12/31 08:29:14;;;;;;;0.10;0.10;;;8.90;99.90;;;;;;5094087;28;20539;-86
2023/12/31 08:31:40;;;;;;;0.00;0.00;;;8.90;99.90;;;;;;5087173;28;20434;-86
2023/12/31 08:34:06;;;;;;;0.00;0.00;;;8.80;99.90;;;;;;5078792;28;20140;-86
2023/12/31 08:36:31;;;;;;;0.98;0.28;;;8.80;99.90;;;;;;5068097;28;20036;-87
2023/12/31 08:38:57;;;;;;;0.00;0.00;;;8.90;99.90;;;;;;5055083;28;20353;-86
2023/12/31 08:41:25;;;;;;;0.00;0.00;;;8.90;99.90;;;;;;5075043;28;20123;-86
2023/12/31 08:43:50;;;;;;;0.00;0.00;;;8.80;99.10;;;;;;5103474;28;20082;-86
2023/12/31 08:46:16;;;;;;;0.20;0.13;;;9.60;99.90;;;;;;5067246;28;20470;-86
2023/12/31 08:48:42;;;;;;;0.70;0.70;;;8.90;99.70;;;;;;5094899;28;20087;-86
2023/12/31 08:51:07;;;;;;;0.00;0.00;;;8.90;99.90;;;;;;5065072;28;21063;-86
2023/12/31 08:53:33;;;;;;;0.10;0.10;;;8.90;99.90;;;;;;5101704;28;20397;-86
2023/12/31 08:55:59;;;;;;;2.45;0.57;;;8.90;94.30;;;;;;5068601;28;20071;-86
2023/12/31 08:58:25;;;;;;;0.00;0.00;;;8.90;72.50;;;;;;5068042;28;20063;-86
2023/12/31 09:00:52;;;;;;;0.40;0.30;;;9.10;48.80;;;;;;5093768;28;20477;-86
2023/12/31 09:03:18;;;;;;;0.17;0.17;;;9.10;1.00;;;;;;5067388;28;20039;-86
2023/12/31 09:05:44;;;;;;;0.00;0.00;;;9.20;1.00;;;;;;5093874;28;20535;-86
2023/12/31 09:08:09;;;;;;;1.65;1.10;;;9.30;1.00;;;;;;5097165;28;20799;-85
2023/12/31 09:10:35;;;;;;;0.00;0.00;;;9.20;1.00;;;;;;5085125;28;20048;-86
2023/12/31 09:13:02;;;;;;;0.03;0.03;;;9.30;1.00;;;;;;5093017;28;20048;-86
2023/12/31 09:15:28;;;;;;;0.20;0.20;;;9.30;1.00;;;;;;5098805;28;20131;-86
2023/12/31 09:17:54;;;;;;;0.00;0.00;;;9.10;1.00;;;;;;5091763;28;20126;-86
2023/12/31 09:20:21;;;;;;;0.00;0.00;;;9.20;1.00;;;;;;5096323;28;20043;-86
2023/12/31 09:22:50;;;;;;;0.00;0.00;;;9.20;1.00;;;;;;5053010;28;20127;-86
2023/12/31 09:25:16;;;;;;;0.13;0.10;;;9.30;1.00;;;;;;5081776;28;20123;-86
2023/12/31 09:27:41;;;;;;;0.43;0.25;;;9.30;1.00;;;;;;5063946;28;20126;-86
2023/12/31 09:30:08;;;;;;;0.10;0.00;;;9.40;1.00;;;;;;5093334;28;20410;-86
2023/12/31 09:32:34;;;;;;;0.10;0.10;;;9.50;1.00;;;;;;5089468;28;20074;-86
2023/12/31 09:34:59;;;;;;;0.05;0.05;;;9.40;1.00;;;;;;5090847;28;20153;-86
2023/12/31 09:37:25;;;;;;;0.00;0.00;;;9.40;1.00;;;;;;5066905;28;20493;-86
2023/12/31 09:39:51;;;;;;;0.00;0.00;;;9.40;1.00;;;;;;5093891;28;20036;-86
2023/12/31 09:42:20;;;;;;;0.00;0.00;;;9.30;1.00;;;;;;5102595;28;20047;-87
2023/12/31 09:44:49;;;;;;;0.00;0.00;;;9.50;1.00;;;;;;5103196;28;20296;-87
2023/12/31 09:47:14;;;;;;;0.38;0.20;;;9.50;1.00;;;;;;5103372;28;20051;-86
2023/12/31 09:49:41;;;;;;;0.32;0.32;;;9.40;1.00;;;;;;5067165;28;20063;-87
2023/12/31 09:52:07;;;;;;;0.43;0.30;;;9.50;1.00;;;;;;5065223;28;20050;-87
2023/12/31 09:54:40;;;;;;;0.20;0.20;;;9.50;1.00;;;;;;5064580;28;20116;-87
2023/12/31 09:57:06;;;;;;;1.48;0.43;;;9.50;1.00;;;;;;5088273;28;20046;-87
2023/12/31 09:59:32;;;;;;;0.08;0.03;;;9.60;1.00;;;;;;5065459;28;20089;-87
2023/12/31 10:02:02;;;;;;;0.00;0.00;;;9.70;1.00;;;;;;5062530;28;20059;-87
2023/12/31 10:04:29;;;;;;;0.10;0.10;;;9.70;1.00;;;;;;5063497;28;20448;-88
2023/12/31 10:06:56;;;;;;;0.00;0.00;;;10.60;1.00;;;;;;5050360;28;20085;-87
2023/12/31 10:09:28;;;;;;;0.20;0.20;;;9.70;1.00;;;;;;5101077;28;20043;-87
2023/12/31 10:11:54;;;;;;;0.32;0.15;;;9.70;1.00;;;;;;5101138;28;20035;-87
2023/12/31 10:14:21;;;;;;;0.00;0.00;;;10.00;1.00;;;;;;5094729;28;20042;-87
2023/12/31 10:16:50;;;;;;;0.32;0.13;;;9.80;1.00;;;;;;5104271;28;20047;-88
2023/12/31 10:19:16;;;;;;;0.00;0.00;;;9.70;1.00;;;;;;5071671;28;20068;-88
2023/12/31 10:21:42;;;;;;;0.15;0.15;;;9.70;1.00;;;;;;5064917;28;20087;-88
2023/12/31 10:24:08;;;;;;;0.00;0.00;;;9.80;1.00;;;;;;5101826;28;20532;-87
2023/12/31 10:26:35;;;;;;;0.10;0.10;;;9.80;1.00;;;;;;5105617;28;20082;-87
2023/12/31 10:29:00;;;;;;;0.20;0.13;;;10.00;1.00;;;;;;5107532;28;20035;-87
2023/12/31 10:31:27;;;;;;;0.15;0.15;;;10.00;99.90;;;;;;5097891;28;20043;-87
2023/12/31 10:33:53;;;;;;;0.32;0.20;;;10.10;1.00;;;;;;5087065;28;20043;-87
2023/12/31 10:36:23;;;;;;;0.20;0.20;;;10.10;99.90;;;;;;5091294;28;20050;-87
2023/12/31 10:38:50;;;;;;;0.30;0.30;;;10.10;99.90;;;;;;5097490;28;20433;-87
2023/12/31 10:41:24;;;;;;;0.00;0.00;;;10.10;99.90;;;;;;5094140;28;20531;-87
2023/12/31 10:43:53;;;;;;;0.17;0.17;;;10.30;99.90;;;;;;5102851;28;20067;-87
2023/12/31 10:46:19;;;;;;;0.03;0.03;;;10.20;99.90;;;;;;5101777;28;20043;-87
2023/12/31 10:49:01;;;;;;;0.98;0.70;;;10.30;99.90;;;;;;5095011;28;20122;-87
2023/12/31 10:51:27;;;;;;;0.10;0.10;;;10.40;99.90;;;;;;5094016;28;20035;-87
2023/12/31 10:54:05;;;;;;;0.20;0.20;;;10.30;99.90;;;;;;5089343;28;20091;-87
2023/12/31 10:56:32;;;;;;;0.00;0.00;;;10.30;99.90;;;;;;5082037;28;20047;-88
2023/12/31 10:58:58;;;;;;;1.00;0.38;;;10.40;99.90;;;;;;5082092;28;20036;-87
2023/12/31 11:01:25;;;;;;;0.63;0.15;;;10.60;99.90;;;;;;5060066;28;20079;-88
2023/12/31 11:03:52;;;;;;;0.10;0.10;;;10.70;99.90;;;;;;5061943;28;20128;-87
2023/12/31 11:06:18;;;;;;;0.65;0.40;;;10.90;99.90;;;;;;5069737;28;20076;-87
2023/12/31 11:08:48;;;;;;;0.25;0.25;;;11.00;99.90;;;;;;5060257;28;20123;-87
2023/12/31 11:11:14;;;;;;;0.52;0.20;;;12.30;99.90;;;;;;5041959;28;20520;-87
2023/12/31 11:13:45;;;;;;;0.00;0.00;;;10.70;99.90;;;;;;5068747;28;20434;-87
2023/12/31 11:16:22;;;;;;;0.00;0.00;;;10.40;99.90;;;;;;5061602;28;20474;-87
2023/12/31 11:19:14;;;;;;;2.65;0.75;;;10.20;99.90;;;;;;5078578;28;20135;-87
2023/12/31 11:21:59;;;;;;;0.70;0.47;;;9.90;1.00;;;;;;5056748;28;20048;-87
2023/12/31 11:24:25;;;;;;;0.03;0.03;;;9.60;99.90;;;;;;5068285;28;20135;-87
2023/12/31 11:27:15;;;;;;;0.28;0.28;;;10.50;99.90;;;;;;5082011;28;20039;-88
2023/12/31 11:29:41;;;;;;;0.00;0.00;;;9.20;99.90;;;;;;5065917;28;20143;-86
2023/12/31 11:32:08;;;;;;;0.00;0.00;;;9.10;2.80;;;;;;5075167;28;20422;-87
2023/12/31 11:34:40;;;;;;;0.03;0.03;;;9.00;99.90;;;;;;5073246;28;20359;-87
2023/12/31 11:37:09;;;;;;;0.93;0.52;;;8.70;99.90;;;;;;5065027;28;20052;-87
2023/12/31 11:39:35;;;;;;;0.60;0.60;;;8.70;1.00;;;;;;5064592;28;20059;-87
2023/12/31 11:42:09;;;;;;;0.00;0.00;;;8.70;99.90;;;;;;5064959;28;20087;-87
2023/12/31 11:44:46;;;;;;;0.25;0.25;;;8.60;99.90;;;;;;5064420;28;20173;-87
2023/12/31 11:47:22;;;;;;;0.32;0.32;;;8.70;99.90;;;;;;5064713;28;20075;-87
2023/12/31 11:49:52;;;;;;;0.35;0.35;;;8.60;99.90;;;;;;5066685;28;20501;-87
2023/12/31 11:52:36;;;;;;;0.00;0.00;;;8.80;99.90;;;;;;5064911;28;20084;-87
2023/12/31 11:55:03;;;;;;;0.20;0.20;;;8.50;1.00;;;;;;5066892;28;20071;-88
2023/12/31 11:57:28;;;;;;;0.00;0.00;;;8.40;1.00;;;;;;5066360;28;20569;-88
2023/12/31 11:59:55;;;;;;;0.00;0.00;;;8.20;1.00;;;;;;5063827;28;20056;-87
2023/12/31 12:02:21;;;;;;;0.00;0.00;;;8.10;1.00;;;;;;5063035;28;20052;-87
2023/12/31 12:04:46;;;;;;;0.00;0.00;;;7.90;99.90;;;;;;5075852;28;20075;-87
2023/12/31 12:07:13;;;;;;;0.28;0.05;;;7.80;99.90;;;;;;5069269;28;20287;-87
2023/12/31 12:09:39;;;;;;;0.00;0.00;;;7.90;99.90;;;;;;5073886;28;20554;-87
2023/12/31 12:12:06;;;;;;;0.00;0.00;;;7.80;99.90;;;;;;5085082;28;20133;-87
2023/12/31 12:14:33;;;;;;;0.20;0.13;;;7.80;99.90;;;;;;5085189;28;20047;-87
2023/12/31 12:17:00;;;;;;;0.00;0.00;;;7.90;99.90;;;;;;5073468;28;20117;-87
2023/12/31 12:19:26;;;;;;;0.00;0.00;;;7.90;99.90;;;;;;5071049;28;20040;-87
2023/12/31 12:21:52;;;;;;;0.20;0.20;;;7.90;99.90;;;;;;5066756;28;20078;-88
2023/12/31 12:24:18;;;;;;;0.00;0.00;;;7.90;99.90;;;;;;5065313;28;20692;-88
2023/12/31 12:26:47;;;;;;;0.28;0.28;;;7.80;99.90;;;;;;5066645;28;20211;-88
2023/12/31 12:29:15;;;;;;;0.20;0.13;;;7.70;99.90;;;;;;5065351;28;20487;-87
2023/12/31 12:31:46;;;;;;;0.00;0.00;;;7.60;99.90;;;;;;5067225;28;20088;-87
2023/12/31 12:34:16;;;;;;;0.00;0.00;;;7.70;1.00;;;;;;5067054;28;20514;-88
2023/12/31 12:36:42;;;;;;;0.00;0.00;;;7.80;27.10;;;;;;5066037;28;20087;-88
2023/12/31 12:39:20;;;;;;;3.13;0.30;;;7.80;1.00;;;;;;5064960;28;20330;-88
2023/12/31 12:41:51;;;;;;;2.75;0.40;;;7.90;25.20;;;;;;5070956;28;20527;-87
2023/12/31 12:44:17;;;;;;;0.70;0.70;;;8.10;1.00;;;;;;5086321;28;20051;-87
2023/12/31 12:46:45;;;;;;;0.75;0.73;;;9.50;99.90;;;;;;5085605;28;20044;-88
2023/12/31 12:49:11;;;;;;;1.10;0.45;;;8.40;1.00;;;;;;5084897;28;20530;-87
2023/12/31 12:51:38;;;;;;;0.00;0.00;;;8.60;99.90;;;;;;5086226;28;20205;-88
2023/12/31 12:54:05;;;;;;;0.00;0.00;;;8.60;99.90;;;;;;5084949;28;20056;-88
2023/12/31 12:56:31;;;;;;;0.10;0.00;;;8.50;1.00;;;;;;5086151;28;20051;-88